N233CL KCLT-KPHL
Flight info
| Callsign | N233CL |
|---|---|
| Flight time | N/A |
| Altitude | 45000 |
| Route | KILNS5 AUDII BBDOL PAATS4 |
| Aircraft | C700/M-SBDGHM1RWXY/LB2 |
Departure
| Time | 2026-05-06 00:47 |
|---|---|
| Airport | Charlotte Douglas International Airport (KCLT) |
Arrival
| Time | N/A |
|---|---|
| Airport | Philadelphia International Airport (KPHL) |
| Time | Latitude | Longitude | Altitude | Speed | Heading |
|---|---|---|---|---|---|
| 2026-05-06 00:30 | 35.21051 | -80.93207 | 728 ft | 0 kts | 86° |
| 2026-05-06 00:42 | 35.21051 | -80.93203 | 728 ft | 3 kts | 82° |
| 2026-05-06 00:42 | 35.21096 | -80.93190 | 728 ft | 12 kts | 327° |
| 2026-05-06 00:43 | 35.21119 | -80.93286 | 728 ft | 9 kts | 268° |
| 2026-05-06 00:43 | 35.21122 | -80.93340 | 727 ft | 9 kts | 292° |
| 2026-05-06 00:43 | 35.21194 | -80.93373 | 727 ft | 15 kts | 355° |
| 2026-05-06 00:43 | 35.21313 | -80.93384 | 727 ft | 20 kts | 355° |
| 2026-05-06 00:44 | 35.21462 | -80.93398 | 727 ft | 23 kts | 355° |
| 2026-05-06 00:44 | 35.21631 | -80.93412 | 727 ft | 26 kts | 355° |
| 2026-05-06 00:44 | 35.21806 | -80.93427 | 728 ft | 19 kts | 356° |
| 2026-05-06 00:44 | 35.21948 | -80.93415 | 730 ft | 22 kts | 13° |
| 2026-05-06 00:45 | 35.22100 | -80.93386 | 731 ft | 24 kts | 358° |
| 2026-05-06 00:45 | 35.22283 | -80.93400 | 727 ft | 28 kts | 356° |
| 2026-05-06 00:45 | 35.22430 | -80.93413 | 727 ft | 20 kts | 357° |
| 2026-05-06 00:45 | 35.22513 | -80.93465 | 727 ft | 11 kts | 282° |
| 2026-05-06 00:46 | 35.22515 | -80.93505 | 727 ft | 0 kts | 268° |
| 2026-05-06 00:46 | 35.22514 | -80.93518 | 728 ft | 7 kts | 267° |
| 2026-05-06 00:46 | 35.22490 | -80.93615 | 730 ft | 14 kts | 206° |
| 2026-05-06 00:47 | 35.22369 | -80.93610 | 730 ft | 35 kts | 176° |
| 2026-05-06 00:47 | 35.21780 | -80.93560 | 752 ft | 132 kts | 178° |
| 2026-05-06 00:47 | 35.20685 | -80.93448 | 1476 ft | 178 kts | 175° |
| 2026-05-06 00:47 | 35.19433 | -80.93260 | 3095 ft | 178 kts | 175° |
| 2026-05-06 00:48 | 35.18154 | -80.93061 | 4523 ft | 198 kts | 175° |
| 2026-05-06 00:48 | 35.16697 | -80.92783 | 5762 ft | 227 kts | 168° |
| 2026-05-06 00:48 | 35.15268 | -80.91676 | 7030 ft | 266 kts | 136° |
| 2026-05-06 00:48 | 35.14418 | -80.89576 | 8482 ft | 290 kts | 108° |
| 2026-05-06 00:49 | 35.14345 | -80.87052 | 9888 ft | 309 kts | 76° |
| 2026-05-06 00:49 | 35.15141 | -80.84546 | 11076 ft | 329 kts | 61° |
| 2026-05-06 00:49 | 35.16286 | -80.81993 | 12115 ft | 355 kts | 57° |
| 2026-05-06 00:49 | 35.17532 | -80.79338 | 13615 ft | 364 kts | 59° |
| 2026-05-06 00:50 | 35.18662 | -80.76569 | 15018 ft | 373 kts | 62° |
| 2026-05-06 00:50 | 35.19777 | -80.73615 | 15965 ft | 396 kts | 62° |
| 2026-05-06 00:50 | 35.20994 | -80.70556 | 16010 ft | 398 kts | 60° |
| 2026-05-06 00:50 | 35.22227 | -80.67589 | 16018 ft | 386 kts | 60° |
| 2026-05-06 00:51 | 35.23418 | -80.64679 | 16014 ft | 380 kts | 61° |
| 2026-05-06 00:51 | 35.24581 | -80.61766 | 16009 ft | 383 kts | 61° |
| 2026-05-06 00:51 | 35.25757 | -80.58832 | 16182 ft | 387 kts | 61° |
| 2026-05-06 00:51 | 35.26909 | -80.55971 | 18149 ft | 371 kts | 60° |
| 2026-05-06 00:52 | 35.28074 | -80.53095 | 19245 ft | 383 kts | 60° |
| 2026-05-06 00:52 | 35.29260 | -80.50148 | 20407 ft | 389 kts | 60° |
| 2026-05-06 00:52 | 35.30464 | -80.47146 | 21468 ft | 398 kts | 60° |
| 2026-05-06 00:52 | 35.31695 | -80.44073 | 22479 ft | 406 kts | 60° |
| 2026-05-06 00:53 | 35.32954 | -80.40936 | 23494 ft | 414 kts | 60° |
| 2026-05-06 00:53 | 35.34217 | -80.37784 | 24368 ft | 421 kts | 59° |
| 2026-05-06 00:53 | 35.35515 | -80.34537 | 25311 ft | 427 kts | 59° |
| 2026-05-06 00:53 | 35.36829 | -80.31249 | 26256 ft | 433 kts | 59° |
| 2026-05-06 00:54 | 35.38162 | -80.27915 | 27085 ft | 440 kts | 58° |
| 2026-05-06 00:54 | 35.39516 | -80.24521 | 27955 ft | 445 kts | 58° |
| 2026-05-06 00:54 | 35.40880 | -80.21095 | 28796 ft | 451 kts | 58° |
| 2026-05-06 00:54 | 35.42264 | -80.17618 | 29651 ft | 456 kts | 58° |
| 2026-05-06 00:55 | 35.43547 | -80.14015 | 30434 ft | 466 kts | 64° |
| 2026-05-06 00:55 | 35.44672 | -80.10267 | 31180 ft | 470 kts | 63° |
| 2026-05-06 00:55 | 35.45825 | -80.06493 | 31826 ft | 475 kts | 62° |
| 2026-05-06 00:55 | 35.47003 | -80.02685 | 32492 ft | 480 kts | 62° |
| 2026-05-06 00:56 | 35.48180 | -79.98834 | 33120 ft | 485 kts | 62° |
| 2026-05-06 00:56 | 35.49344 | -79.94987 | 33752 ft | 490 kts | 61° |
| 2026-05-06 00:56 | 35.50556 | -79.90996 | 34314 ft | 495 kts | 61° |
| 2026-05-06 00:56 | 35.51762 | -79.87032 | 34875 ft | 498 kts | 61° |
| 2026-05-06 00:57 | 35.52962 | -79.83085 | 35379 ft | 502 kts | 61° |
| 2026-05-06 00:57 | 35.54190 | -79.79056 | 35925 ft | 504 kts | 60° |
| 2026-05-06 00:57 | 35.55447 | -79.75061 | 36657 ft | 499 kts | 59° |
| 2026-05-06 00:57 | 35.56707 | -79.71103 | 37252 ft | 499 kts | 59° |
| 2026-05-06 00:58 | 35.57953 | -79.67119 | 37793 ft | 498 kts | 60° |
| 2026-05-06 00:58 | 35.59177 | -79.63150 | 38312 ft | 497 kts | 60° |
| 2026-05-06 00:58 | 35.60411 | -79.59174 | 38780 ft | 496 kts | 59° |
| 2026-05-06 00:58 | 35.61647 | -79.55224 | 39136 ft | 496 kts | 60° |
| 2026-05-06 00:59 | 35.62880 | -79.51264 | 39475 ft | 496 kts | 60° |
| 2026-05-06 00:59 | 35.64106 | -79.47299 | 39790 ft | 496 kts | 60° |
| 2026-05-06 00:59 | 35.65331 | -79.43333 | 40084 ft | 496 kts | 60° |
| 2026-05-06 00:59 | 35.66557 | -79.39371 | 40440 ft | 494 kts | 60° |
| 2026-05-06 01:00 | 35.67759 | -79.35484 | 40773 ft | 492 kts | 60° |
| 2026-05-06 01:00 | 35.69190 | -79.31646 | 40988 ft | 482 kts | 52° |
| 2026-05-06 01:00 | 35.70929 | -79.28242 | 41232 ft | 472 kts | 44° |
| 2026-05-06 01:00 | 35.72998 | -79.25157 | 41445 ft | 461 kts | 35° |
| 2026-05-06 01:01 | 35.75391 | -79.22642 | 41652 ft | 445 kts | 24° |
| 2026-05-06 01:01 | 35.78032 | -79.20769 | 41865 ft | 433 kts | 15° |
| 2026-05-06 01:01 | 35.80769 | -79.19260 | 42049 ft | 430 kts | 13° |
| 2026-05-06 01:01 | 35.83521 | -79.17802 | 42220 ft | 432 kts | 14° |
| 2026-05-06 01:02 | 35.86223 | -79.16127 | 42384 ft | 440 kts | 19° |
| 2026-05-06 01:02 | 35.88844 | -79.14138 | 42589 ft | 444 kts | 22° |
| 2026-05-06 01:02 | 35.91435 | -79.12053 | 42755 ft | 444 kts | 22° |
| 2026-05-06 01:02 | 35.94077 | -79.10118 | 42916 ft | 440 kts | 19° |
| 2026-05-06 01:03 | 35.96755 | -79.08304 | 43056 ft | 440 kts | 19° |
| 2026-05-06 01:03 | 35.99416 | -79.06420 | 43198 ft | 442 kts | 20° |
| 2026-05-06 01:03 | 36.02054 | -79.04451 | 43389 ft | 443 kts | 21° |
| 2026-05-06 01:03 | 36.04663 | -79.02529 | 43550 ft | 441 kts | 20° |
| 2026-05-06 01:04 | 36.07315 | -79.00637 | 43678 ft | 441 kts | 20° |
| 2026-05-06 01:04 | 36.09975 | -78.98733 | 43814 ft | 442 kts | 20° |
| 2026-05-06 01:04 | 36.12624 | -78.96800 | 43950 ft | 443 kts | 20° |
| 2026-05-06 01:04 | 36.15273 | -78.94861 | 44079 ft | 442 kts | 20° |
| 2026-05-06 01:05 | 36.17932 | -78.92932 | 44183 ft | 443 kts | 20° |
| 2026-05-06 01:05 | 36.20586 | -78.91013 | 44293 ft | 443 kts | 20° |
| 2026-05-06 01:05 | 36.23242 | -78.89078 | 44437 ft | 443 kts | 20° |
| 2026-05-06 01:06 | 36.28574 | -78.85189 | 44568 ft | 445 kts | 20° |
| 2026-05-06 01:06 | 36.33883 | -78.81316 | 44741 ft | 446 kts | 20° |
| 2026-05-06 01:07 | 36.39228 | -78.77407 | 44912 ft | 446 kts | 20° |
| 2026-05-06 01:07 | 36.44578 | -78.73491 | 45005 ft | 447 kts | 20° |
| 2026-05-06 01:08 | 36.49964 | -78.69543 | 45012 ft | 452 kts | 21° |
| 2026-05-06 01:08 | 36.55401 | -78.65548 | 45011 ft | 456 kts | 21° |
| 2026-05-06 01:09 | 36.60877 | -78.61520 | 45003 ft | 460 kts | 21° |
| 2026-05-06 01:09 | 36.66365 | -78.57475 | 45004 ft | 463 kts | 21° |
| 2026-05-06 01:10 | 36.71934 | -78.53365 | 45003 ft | 467 kts | 21° |
| 2026-05-06 01:10 | 36.77540 | -78.49218 | 45008 ft | 470 kts | 21° |
| 2026-05-06 01:11 | 36.83168 | -78.45047 | 45006 ft | 470 kts | 21° |
| 2026-05-06 01:11 | 36.88769 | -78.40890 | 45000 ft | 467 kts | 21° |
| 2026-05-06 01:12 | 36.94346 | -78.36745 | 44999 ft | 466 kts | 21° |
| 2026-05-06 01:12 | 36.99865 | -78.32635 | 44989 ft | 464 kts | 21° |
| 2026-05-06 01:13 | 37.05424 | -78.28491 | 44983 ft | 466 kts | 21° |
| 2026-05-06 01:13 | 37.11010 | -78.24316 | 44990 ft | 468 kts | 22° |
| 2026-05-06 01:14 | 37.19431 | -78.18010 | 44989 ft | 470 kts | 22° |
| 2026-05-06 01:14 | 37.25041 | -78.13799 | 44987 ft | 469 kts | 22° |
| 2026-05-06 01:15 | 37.30593 | -78.09625 | 44969 ft | 468 kts | 22° |
| 2026-05-06 01:15 | 37.36179 | -78.05419 | 44971 ft | 468 kts | 22° |
| 2026-05-06 01:16 | 37.41760 | -78.01209 | 44966 ft | 467 kts | 22° |
| 2026-05-06 01:16 | 37.47323 | -77.97004 | 44966 ft | 466 kts | 22° |
| 2026-05-06 01:17 | 37.52891 | -77.92858 | 44980 ft | 462 kts | 20° |
| 2026-05-06 01:17 | 37.58250 | -77.88315 | 44977 ft | 470 kts | 27° |
| 2026-05-06 01:18 | 37.63482 | -77.83331 | 44975 ft | 474 kts | 31° |
| 2026-05-06 01:18 | 37.68584 | -77.78081 | 44981 ft | 472 kts | 29° |
| 2026-05-06 01:19 | 37.73776 | -77.73007 | 44978 ft | 473 kts | 30° |
| 2026-05-06 01:19 | 37.78918 | -77.67795 | 44982 ft | 473 kts | 29° |
| 2026-05-06 01:20 | 37.81474 | -77.65256 | 44704 ft | 479 kts | 29° |
| 2026-05-06 01:20 | 37.84113 | -77.62636 | 44034 ft | 483 kts | 30° |
| 2026-05-06 01:20 | 37.86734 | -77.59988 | 43395 ft | 480 kts | 30° |
| 2026-05-06 01:20 | 37.89330 | -77.57356 | 42764 ft | 475 kts | 29° |
| 2026-05-06 01:21 | 37.91900 | -77.54776 | 42138 ft | 468 kts | 29° |
| 2026-05-06 01:21 | 37.94429 | -77.52244 | 41531 ft | 461 kts | 28° |
| 2026-05-06 01:21 | 37.96925 | -77.49731 | 40928 ft | 456 kts | 28° |
| 2026-05-06 01:21 | 37.99396 | -77.47233 | 40322 ft | 452 kts | 28° |
| 2026-05-06 01:22 | 38.01853 | -77.44757 | 39721 ft | 451 kts | 28° |
| 2026-05-06 01:22 | 38.04318 | -77.42275 | 39122 ft | 454 kts | 28° |
| 2026-05-06 01:22 | 38.06801 | -77.39768 | 38501 ft | 459 kts | 28° |
| 2026-05-06 01:22 | 38.09308 | -77.37230 | 37863 ft | 462 kts | 28° |
| 2026-05-06 01:23 | 38.11795 | -77.34706 | 37262 ft | 465 kts | 29° |
| 2026-05-06 01:23 | 38.14335 | -77.32131 | 36642 ft | 469 kts | 29° |
| 2026-05-06 01:23 | 38.16894 | -77.29539 | 36021 ft | 472 kts | 30° |
| 2026-05-06 01:23 | 38.19470 | -77.26924 | 35407 ft | 475 kts | 30° |
| 2026-05-06 01:24 | 38.22057 | -77.24293 | 34774 ft | 478 kts | 31° |
| 2026-05-06 01:24 | 38.24658 | -77.21646 | 34137 ft | 479 kts | 32° |
| 2026-05-06 01:24 | 38.27260 | -77.18996 | 33472 ft | 480 kts | 32° |
| 2026-05-06 01:24 | 38.29870 | -77.16334 | 32835 ft | 482 kts | 32° |
| 2026-05-06 01:25 | 38.32500 | -77.13654 | 32193 ft | 487 kts | 33° |
| 2026-05-06 01:25 | 38.35162 | -77.10938 | 31546 ft | 493 kts | 33° |
| 2026-05-06 01:25 | 38.37857 | -77.08181 | 30891 ft | 498 kts | 33° |
| 2026-05-06 01:25 | 38.40552 | -77.05416 | 30252 ft | 495 kts | 34° |
| 2026-05-06 01:26 | 38.43224 | -77.02676 | 29544 ft | 490 kts | 34° |
| 2026-05-06 01:26 | 38.45858 | -76.99975 | 28901 ft | 483 kts | 34° |
| 2026-05-06 01:26 | 38.48464 | -76.97304 | 28272 ft | 478 kts | 34° |
| 2026-05-06 01:26 | 38.51016 | -76.94685 | 27645 ft | 476 kts | 34° |
| 2026-05-06 01:27 | 38.53592 | -76.92035 | 27021 ft | 475 kts | 34° |
| 2026-05-06 01:27 | 38.56162 | -76.89389 | 26393 ft | 474 kts | 34° |
| 2026-05-06 01:27 | 38.58716 | -76.86758 | 25769 ft | 471 kts | 34° |
| 2026-05-06 01:27 | 38.61265 | -76.84129 | 25162 ft | 468 kts | 35° |
| 2026-05-06 01:28 | 38.63794 | -76.81520 | 24539 ft | 466 kts | 35° |
| 2026-05-06 01:28 | 38.66290 | -76.78897 | 23926 ft | 465 kts | 38° |
| 2026-05-06 01:28 | 38.68511 | -76.75874 | 23273 ft | 467 kts | 49° |
| 2026-05-06 01:28 | 38.70307 | -76.72454 | 22921 ft | 453 kts | 59° |
| 2026-05-06 01:29 | 38.71619 | -76.68918 | 22906 ft | 428 kts | 69° |
| 2026-05-06 01:29 | 38.72482 | -76.65356 | 22909 ft | 412 kts | 76° |
| 2026-05-06 01:29 | 38.73207 | -76.61860 | 22912 ft | 415 kts | 75° |
| 2026-05-06 01:29 | 38.73980 | -76.58199 | 22922 ft | 439 kts | 75° |
| 2026-05-06 01:30 | 38.74800 | -76.54288 | 22935 ft | 472 kts | 75° |
| 2026-05-06 01:30 | 38.75666 | -76.50109 | 22917 ft | 493 kts | 76° |
| 2026-05-06 01:30 | 38.76536 | -76.45904 | 22575 ft | 481 kts | 76° |
| 2026-05-06 01:30 | 38.77380 | -76.41849 | 22220 ft | 462 kts | 76° |
| 2026-05-06 01:31 | 38.78193 | -76.37929 | 21892 ft | 449 kts | 76° |
| 2026-05-06 01:31 | 38.78987 | -76.34072 | 21554 ft | 447 kts | 76° |
| 2026-05-06 01:31 | 38.79782 | -76.30205 | 21220 ft | 450 kts | 76° |
| 2026-05-06 01:31 | 38.80581 | -76.26326 | 20890 ft | 450 kts | 76° |
| 2026-05-06 01:32 | 38.81377 | -76.22454 | 20578 ft | 448 kts | 76° |
| 2026-05-06 01:32 | 38.82164 | -76.18616 | 20257 ft | 444 kts | 77° |
| 2026-05-06 01:32 | 38.82936 | -76.14841 | 19956 ft | 445 kts | 77° |
| 2026-05-06 01:32 | 38.83730 | -76.10945 | 19940 ft | 458 kts | 77° |
| 2026-05-06 01:33 | 38.84544 | -76.06953 | 19944 ft | 466 kts | 77° |
| 2026-05-06 01:33 | 38.85363 | -76.02935 | 19942 ft | 465 kts | 77° |
| 2026-05-06 01:33 | 38.86178 | -75.98924 | 19941 ft | 463 kts | 77° |
| 2026-05-06 01:33 | 38.86982 | -75.94927 | 19941 ft | 462 kts | 77° |
| 2026-05-06 01:34 | 38.87813 | -75.90941 | 19955 ft | 463 kts | 74° |
| 2026-05-06 01:34 | 38.89064 | -75.87117 | 19947 ft | 467 kts | 63° |
| 2026-05-06 01:34 | 38.90793 | -75.83592 | 19938 ft | 468 kts | 53° |
| 2026-05-06 01:34 | 38.92954 | -75.80475 | 19931 ft | 466 kts | 43° |
| 2026-05-06 01:35 | 38.95460 | -75.77855 | 19933 ft | 463 kts | 34° |
| 2026-05-06 01:35 | 38.98056 | -75.75424 | 19928 ft | 462 kts | 34° |
| 2026-05-06 01:35 | 39.00613 | -75.73010 | 19926 ft | 462 kts | 34° |
| 2026-05-06 01:35 | 39.03245 | -75.70644 | 19918 ft | 461 kts | 29° |
| 2026-05-06 01:36 | 39.06120 | -75.68841 | 19912 ft | 459 kts | 19° |
| 2026-05-06 01:36 | 39.09162 | -75.67664 | 19910 ft | 455 kts | 9° |
| 2026-05-06 01:36 | 39.12286 | -75.67121 | 19913 ft | 452 kts | 1° |
| 2026-05-06 01:36 | 39.15421 | -75.66791 | 19923 ft | 452 kts | 1° |
| 2026-05-06 01:37 | 39.18559 | -75.66448 | 19924 ft | 453 kts | 1° |
| 2026-05-06 01:37 | 39.21695 | -75.66101 | 19925 ft | 453 kts | 1° |
| 2026-05-06 01:37 | 39.24838 | -75.65695 | 19915 ft | 456 kts | 5° |
| 2026-05-06 01:37 | 39.27931 | -75.64699 | 19906 ft | 460 kts | 15° |
| 2026-05-06 01:38 | 39.30881 | -75.63067 | 19910 ft | 463 kts | 25° |
| 2026-05-06 01:38 | 39.33616 | -75.60862 | 19879 ft | 463 kts | 32° |
| 2026-05-06 01:38 | 39.36134 | -75.58310 | 19349 ft | 456 kts | 42° |
| 2026-05-06 01:38 | 39.38231 | -75.55340 | 18766 ft | 441 kts | 52° |
| 2026-05-06 01:39 | 39.39908 | -75.52055 | 18262 ft | 426 kts | 61° |
| 2026-05-06 01:39 | 39.41111 | -75.48712 | 17715 ft | 417 kts | 70° |
| 2026-05-06 01:39 | 39.42140 | -75.45226 | 17175 ft | 415 kts | 70° |
| 2026-05-06 01:39 | 39.43184 | -75.41743 | 16621 ft | 416 kts | 70° |
| 2026-05-06 01:40 | 39.44234 | -75.38263 | 16079 ft | 414 kts | 70° |
| 2026-05-06 01:40 | 39.45360 | -75.34848 | 15537 ft | 411 kts | 63° |